sensor_id;sensor_type;location;lat;lon;timestamp;P1;durP1;ratioP1;P2;durP2;ratioP2
15454;SDS011;21057;51.024;7.540;2023-10-13T00:01:20;30.85;;;28.17;;
15454;SDS011;21057;51.024;7.540;2023-10-13T00:03:47;29.65;;;27.40;;
15454;SDS011;21057;51.024;7.540;2023-10-13T00:06:13;30.73;;;28.25;;
15454;SDS011;21057;51.024;7.540;2023-10-13T00:08:40;29.35;;;27.15;;
15454;SDS011;21057;51.024;7.540;2023-10-13T00:11:11;31.70;;;28.45;;
15454;SDS011;21057;51.024;7.540;2023-10-13T00:13:40;29.40;;;27.10;;
15454;SDS011;21057;51.024;7.540;2023-10-13T00:16:15;29.63;;;27.33;;
15454;SDS011;21057;51.024;7.540;2023-10-13T00:18:46;30.02;;;27.75;;
15454;SDS011;21057;51.024;7.540;2023-10-13T00:21:13;32.08;;;29.13;;
15454;SDS011;21057;51.024;7.540;2023-10-13T00:23:44;31.65;;;29.02;;
15454;SDS011;21057;51.024;7.540;2023-10-13T00:26:17;30.55;;;28.15;;
15454;SDS011;21057;51.024;7.540;2023-10-13T00:28:50;31.48;;;29.17;;
15454;SDS011;21057;51.024;7.540;2023-10-13T00:31:24;30.90;;;28.55;;
15454;SDS011;21057;51.024;7.540;2023-10-13T00:33:57;30.83;;;28.63;;
15454;SDS011;21057;51.024;7.540;2023-10-13T00:36:28;30.23;;;27.90;;
15454;SDS011;21057;51.024;7.540;2023-10-13T00:38:57;30.23;;;27.92;;
15454;SDS011;21057;51.024;7.540;2023-10-13T00:41:24;29.88;;;27.65;;
15454;SDS011;21057;51.024;7.540;2023-10-13T00:44:16;30.13;;;27.63;;
15454;SDS011;21057;51.024;7.540;2023-10-13T00:46:42;29.60;;;27.35;;
15454;SDS011;21057;51.024;7.540;2023-10-13T00:49:11;30.50;;;27.75;;
15454;SDS011;21057;51.024;7.540;2023-10-13T00:51:40;30.55;;;27.85;;
15454;SDS011;21057;51.024;7.540;2023-10-13T00:54:12;30.75;;;28.25;;
15454;SDS011;21057;51.024;7.540;2023-10-13T00:56:39;30.27;;;27.85;;
15454;SDS011;21057;51.024;7.540;2023-10-13T00:59:12;31.50;;;28.67;;
15454;SDS011;21057;51.024;7.540;2023-10-13T01:01:40;29.33;;;27.23;;
15454;SDS011;21057;51.024;7.540;2023-10-13T01:04:09;29.38;;;27.02;;
15454;SDS011;21057;51.024;7.540;2023-10-13T01:06:37;30.10;;;27.75;;
15454;SDS011;21057;51.024;7.540;2023-10-13T01:09:05;30.08;;;27.88;;
15454;SDS011;21057;51.024;7.540;2023-10-13T01:11:37;31.15;;;28.83;;
15454;SDS011;21057;51.024;7.540;2023-10-13T01:14:04;29.75;;;27.20;;
15454;SDS011;21057;51.024;7.540;2023-10-13T01:16:31;30.20;;;27.63;;
15454;SDS011;21057;51.024;7.540;2023-10-13T01:19:00;30.20;;;27.77;;
15454;SDS011;21057;51.024;7.540;2023-10-13T01:21:30;31.08;;;28.17;;
15454;SDS011;21057;51.024;7.540;2023-10-13T01:24:00;31.05;;;28.75;;
15454;SDS011;21057;51.024;7.540;2023-10-13T01:26:26;30.63;;;28.23;;
15454;SDS011;21057;51.024;7.540;2023-10-13T01:28:56;30.23;;;27.80;;
15454;SDS011;21057;51.024;7.540;2023-10-13T01:31:23;30.38;;;28.15;;
15454;SDS011;21057;51.024;7.540;2023-10-13T01:33:56;29.88;;;27.73;;
15454;SDS011;21057;51.024;7.540;2023-10-13T01:36:24;31.23;;;28.83;;
15454;SDS011;21057;51.024;7.540;2023-10-13T01:38:52;30.40;;;28.08;;
15454;SDS011;21057;51.024;7.540;2023-10-13T01:41:20;30.35;;;27.90;;
15454;SDS011;21057;51.024;7.540;2023-10-13T01:43:47;30.10;;;27.73;;
15454;SDS011;21057;51.024;7.540;2023-10-13T01:46:15;30.23;;;27.63;;
15454;SDS011;21057;51.024;7.540;2023-10-13T01:48:44;31.33;;;28.83;;
15454;SDS011;21057;51.024;7.540;2023-10-13T01:51:11;30.92;;;28.40;;
15454;SDS011;21057;51.024;7.540;2023-10-13T01:53:37;30.85;;;28.58;;
15454;SDS011;21057;51.024;7.540;2023-10-13T01:56:04;31.40;;;28.90;;
15454;SDS011;21057;51.024;7.540;2023-10-13T01:58:36;31.48;;;29.08;;
15454;SDS011;21057;51.024;7.540;2023-10-13T02:01:06;31.27;;;28.77;;
15454;SDS011;21057;51.024;7.540;2023-10-13T02:03:32;31.33;;;28.60;;
15454;SDS011;21057;51.024;7.540;2023-10-13T02:06:06;32.95;;;29.67;;
15454;SDS011;21057;51.024;7.540;2023-10-13T02:08:35;31.85;;;29.45;;
15454;SDS011;21057;51.024;7.540;2023-10-13T02:11:05;31.55;;;28.98;;
15454;SDS011;21057;51.024;7.540;2023-10-13T02:13:32;31.30;;;28.58;;
15454;SDS011;21057;51.024;7.540;2023-10-13T02:16:07;30.67;;;28.08;;
15454;SDS011;21057;51.024;7.540;2023-10-13T02:18:34;30.98;;;28.33;;
15454;SDS011;21057;51.024;7.540;2023-10-13T02:21:06;30.58;;;28.08;;
15454;SDS011;21057;51.024;7.540;2023-10-13T02:23:38;32.35;;;29.77;;
15454;SDS011;21057;51.024;7.540;2023-10-13T02:26:10;32.13;;;29.50;;
15454;SDS011;21057;51.024;7.540;2023-10-13T02:28:37;33.28;;;30.48;;
15454;SDS011;21057;51.024;7.540;2023-10-13T02:31:04;31.17;;;28.50;;
15454;SDS011;21057;51.024;7.540;2023-10-13T02:33:33;32.47;;;29.77;;
15454;SDS011;21057;51.024;7.540;2023-10-13T02:36:09;31.25;;;28.90;;
15454;SDS011;21057;51.024;7.540;2023-10-13T02:38:37;30.48;;;27.95;;
15454;SDS011;21057;51.024;7.540;2023-10-13T02:41:11;32.13;;;29.50;;
15454;SDS011;21057;51.024;7.540;2023-10-13T02:43:43;32.05;;;29.33;;
15454;SDS011;21057;51.024;7.540;2023-10-13T02:46:10;32.65;;;30.00;;
15454;SDS011;21057;51.024;7.540;2023-10-13T02:48:42;32.55;;;29.27;;
15454;SDS011;21057;51.024;7.540;2023-10-13T02:51:11;32.53;;;29.98;;
15454;SDS011;21057;51.024;7.540;2023-10-13T02:53:40;32.08;;;29.17;;
15454;SDS011;21057;51.024;7.540;2023-10-13T02:56:11;35.22;;;30.42;;
15454;SDS011;21057;51.024;7.540;2023-10-13T02:58:39;32.92;;;29.95;;
15454;SDS011;21057;51.024;7.540;2023-10-13T03:01:09;33.00;;;30.40;;
15454;SDS011;21057;51.024;7.540;2023-10-13T03:03:47;33.47;;;30.35;;
15454;SDS011;21057;51.024;7.540;2023-10-13T03:06:16;34.22;;;30.50;;
15454;SDS011;21057;51.024;7.540;2023-10-13T03:08:46;34.28;;;30.80;;
15454;SDS011;21057;51.024;7.540;2023-10-13T03:11:12;32.42;;;29.45;;
15454;SDS011;21057;51.024;7.540;2023-10-13T03:13:41;32.63;;;29.77;;
15454;SDS011;21057;51.024;7.540;2023-10-13T03:16:11;32.17;;;29.33;;
15454;SDS011;21057;51.024;7.540;2023-10-13T03:18:41;32.55;;;29.75;;
15454;SDS011;21057;51.024;7.540;2023-10-13T03:21:17;31.75;;;29.00;;
15454;SDS011;21057;51.024;7.540;2023-10-13T03:23:53;31.85;;;29.20;;
15454;SDS011;21057;51.024;7.540;2023-10-13T03:26:21;33.50;;;30.55;;
15454;SDS011;21057;51.024;7.540;2023-10-13T03:28:47;34.17;;;31.27;;
15454;SDS011;21057;51.024;7.540;2023-10-13T03:31:17;32.13;;;29.35;;
15454;SDS011;21057;51.024;7.540;2023-10-13T03:33:44;32.90;;;30.08;;
15454;SDS011;21057;51.024;7.540;2023-10-13T03:36:11;35.65;;;32.50;;
15454;SDS011;21057;51.024;7.540;2023-10-13T03:39:00;34.85;;;32.13;;
15454;SDS011;21057;51.024;7.540;2023-10-13T03:41:32;35.70;;;30.23;;
15454;SDS011;21057;51.024;7.540;2023-10-13T03:44:02;34.95;;;32.00;;
15454;SDS011;21057;51.024;7.540;2023-10-13T03:46:38;34.63;;;31.55;;
15454;SDS011;21057;51.024;7.540;2023-10-13T03:49:06;34.95;;;31.75;;
15454;SDS011;21057;51.024;7.540;2023-10-13T03:51:38;35.50;;;32.03;;
15454;SDS011;21057;51.024;7.540;2023-10-13T03:54:06;33.67;;;30.73;;
15454;SDS011;21057;51.024;7.540;2023-10-13T03:56:33;34.63;;;31.55;;
15454;SDS011;21057;51.024;7.540;2023-10-13T03:59:05;33.38;;;30.25;;
15454;SDS011;21057;51.024;7.540;2023-10-13T04:01:35;34.72;;;31.45;;
15454;SDS011;21057;51.024;7.540;2023-10-13T04:04:10;34.10;;;31.00;;
15454;SDS011;21057;51.024;7.540;2023-10-13T04:06:39;34.58;;;31.00;;
15454;SDS011;21057;51.024;7.540;2023-10-13T04:09:39;33.28;;;30.08;;
15454;SDS011;21057;51.024;7.540;2023-10-13T04:12:24;34.00;;;30.70;;
15454;SDS011;21057;51.024;7.540;2023-10-13T04:15:20;34.65;;;31.40;;
15454;SDS011;21057;51.024;7.540;2023-10-13T04:17:52;33.53;;;30.63;;
15454;SDS011;21057;51.024;7.540;2023-10-13T04:20:19;34.38;;;30.92;;
15454;SDS011;21057;51.024;7.540;2023-10-13T04:23:02;33.90;;;30.90;;
15454;SDS011;21057;51.024;7.540;2023-10-13T04:25:45;34.15;;;30.60;;
15454;SDS011;21057;51.024;7.540;2023-10-13T04:28:33;35.03;;;31.85;;
15454;SDS011;21057;51.024;7.540;2023-10-13T04:31:02;33.33;;;29.95;;
15454;SDS011;21057;51.024;7.540;2023-10-13T04:33:37;34.42;;;31.48;;
15454;SDS011;21057;51.024;7.540;2023-10-13T04:36:16;33.53;;;30.60;;
15454;SDS011;21057;51.024;7.540;2023-10-13T04:38:48;32.90;;;29.70;;
15454;SDS011;21057;51.024;7.540;2023-10-13T04:41:28;33.90;;;30.70;;
15454;SDS011;21057;51.024;7.540;2023-10-13T04:43:57;33.35;;;29.88;;
15454;SDS011;21057;51.024;7.540;2023-10-13T04:46:29;32.97;;;29.67;;
15454;SDS011;21057;51.024;7.540;2023-10-13T04:49:19;34.22;;;31.30;;
15454;SDS011;21057;51.024;7.540;2023-10-13T04:51:53;34.42;;;31.00;;
15454;SDS011;21057;51.024;7.540;2023-10-13T04:54:38;38.47;;;31.08;;
15454;SDS011;21057;51.024;7.540;2023-10-13T04:57:16;34.47;;;31.15;;
15454;SDS011;21057;51.024;7.540;2023-10-13T04:59:49;32.90;;;30.10;;
15454;SDS011;21057;51.024;7.540;2023-10-13T05:02:34;33.85;;;30.90;;
15454;SDS011;21057;51.024;7.540;2023-10-13T05:05:19;34.60;;;30.63;;
15454;SDS011;21057;51.024;7.540;2023-10-13T05:08:04;33.78;;;30.90;;
15454;SDS011;21057;51.024;7.540;2023-10-13T05:10:49;34.88;;;31.95;;
15454;SDS011;21057;51.024;7.540;2023-10-13T05:13:35;35.90;;;32.78;;
15454;SDS011;21057;51.024;7.540;2023-10-13T05:16:19;37.70;;;33.88;;
15454;SDS011;21057;51.024;7.540;2023-10-13T05:19:04;35.17;;;31.92;;
15454;SDS011;21057;51.024;7.540;2023-10-13T05:21:48;36.05;;;32.95;;
15454;SDS011;21057;51.024;7.540;2023-10-13T05:24:33;36.95;;;33.72;;
15454;SDS011;21057;51.024;7.540;2023-10-13T05:27:16;33.85;;;30.98;;
15454;SDS011;21057;51.024;7.540;2023-10-13T05:30:02;34.45;;;31.75;;
15454;SDS011;21057;51.024;7.540;2023-10-13T05:32:47;34.38;;;31.30;;
15454;SDS011;21057;51.024;7.540;2023-10-13T05:35:31;34.50;;;31.60;;
15454;SDS011;21057;51.024;7.540;2023-10-13T05:38:16;34.38;;;31.23;;
15454;SDS011;21057;51.024;7.540;2023-10-13T05:41:01;34.30;;;31.52;;
15454;SDS011;21057;51.024;7.540;2023-10-13T05:43:46;34.78;;;31.83;;
15454;SDS011;21057;51.024;7.540;2023-10-13T05:46:31;32.70;;;30.17;;
15454;SDS011;21057;51.024;7.540;2023-10-13T05:49:14;33.35;;;30.70;;
15454;SDS011;21057;51.024;7.540;2023-10-13T05:52:05;33.50;;;30.70;;
15454;SDS011;21057;51.024;7.540;2023-10-13T05:55:05;32.78;;;30.15;;
15454;SDS011;21057;51.024;7.540;2023-10-13T05:57:49;34.45;;;31.40;;
15454;SDS011;21057;51.024;7.540;2023-10-13T06:00:38;34.33;;;31.25;;
15454;SDS011;21057;51.024;7.540;2023-10-13T06:03:24;31.13;;;28.90;;
15454;SDS011;21057;51.024;7.540;2023-10-13T06:06:11;32.95;;;30.08;;
15454;SDS011;21057;51.024;7.540;2023-10-13T06:08:55;34.25;;;31.45;;
15454;SDS011;21057;51.024;7.540;2023-10-13T06:11:40;32.92;;;29.98;;
15454;SDS011;21057;51.024;7.540;2023-10-13T06:14:24;31.48;;;28.95;;
15454;SDS011;21057;51.024;7.540;2023-10-13T06:17:09;33.72;;;30.95;;
15454;SDS011;21057;51.024;7.540;2023-10-13T06:19:54;33.05;;;30.48;;
15454;SDS011;21057;51.024;7.540;2023-10-13T06:22:39;32.95;;;30.00;;
15454;SDS011;21057;51.024;7.540;2023-10-13T06:25:23;30.98;;;28.52;;
15454;SDS011;21057;51.024;7.540;2023-10-13T06:28:08;33.40;;;30.48;;
15454;SDS011;21057;51.024;7.540;2023-10-13T06:30:56;31.02;;;28.10;;
15454;SDS011;21057;51.024;7.540;2023-10-13T06:33:24;30.52;;;27.85;;
15454;SDS011;21057;51.024;7.540;2023-10-13T06:35:57;30.95;;;28.35;;
15454;SDS011;21057;51.024;7.540;2023-10-13T06:38:24;31.90;;;29.00;;
15454;SDS011;21057;51.024;7.540;2023-10-13T06:40:56;31.95;;;28.98;;
15454;SDS011;21057;51.024;7.540;2023-10-13T06:43:23;32.10;;;29.08;;
15454;SDS011;21057;51.024;7.540;2023-10-13T06:45:50;31.13;;;28.40;;
15454;SDS011;21057;51.024;7.540;2023-10-13T06:48:25;31.48;;;28.63;;
15454;SDS011;21057;51.024;7.540;2023-10-13T06:50:52;32.88;;;29.92;;
15454;SDS011;21057;51.024;7.540;2023-10-13T06:53:22;31.95;;;29.27;;
15454;SDS011;21057;51.024;7.540;2023-10-13T06:55:49;33.95;;;31.00;;
15454;SDS011;21057;51.024;7.540;2023-10-13T06:58:23;30.83;;;28.27;;
15454;SDS011;21057;51.024;7.540;2023-10-13T07:00:50;32.10;;;28.45;;
15454;SDS011;21057;51.024;7.540;2023-10-13T07:03:21;32.38;;;29.67;;
15454;SDS011;21057;51.024;7.540;2023-10-13T07:05:51;33.03;;;29.77;;
15454;SDS011;21057;51.024;7.540;2023-10-13T07:08:19;32.63;;;29.90;;
15454;SDS011;21057;51.024;7.540;2023-10-13T07:10:50;32.03;;;29.40;;
15454;SDS011;21057;51.024;7.540;2023-10-13T07:13:27;31.50;;;29.02;;
15454;SDS011;21057;51.024;7.540;2023-10-13T07:15:54;32.13;;;29.00;;
15454;SDS011;21057;51.024;7.540;2023-10-13T07:18:30;31.02;;;28.10;;
15454;SDS011;21057;51.024;7.540;2023-10-13T07:21:01;30.77;;;28.20;;
15454;SDS011;21057;51.024;7.540;2023-10-13T07:23:34;31.83;;;28.80;;
15454;SDS011;21057;51.024;7.540;2023-10-13T07:26:04;32.67;;;29.00;;
15454;SDS011;21057;51.024;7.540;2023-10-13T07:28:33;32.33;;;28.45;;
15454;SDS011;21057;51.024;7.540;2023-10-13T07:31:08;30.92;;;28.02;;
15454;SDS011;21057;51.024;7.540;2023-10-13T07:33:41;32.03;;;29.10;;
15454;SDS011;21057;51.024;7.540;2023-10-13T07:36:08;32.97;;;29.60;;
15454;SDS011;21057;51.024;7.540;2023-10-13T07:38:41;31.38;;;28.77;;
15454;SDS011;21057;51.024;7.540;2023-10-13T07:41:10;31.20;;;28.83;;
15454;SDS011;21057;51.024;7.540;2023-10-13T07:43:41;32.45;;;29.48;;
15454;SDS011;21057;51.024;7.540;2023-10-13T07:46:10;32.13;;;29.25;;
15454;SDS011;21057;51.024;7.540;2023-10-13T07:48:37;30.88;;;28.30;;
15454;SDS011;21057;51.024;7.540;2023-10-13T07:51:06;32.33;;;29.48;;
15454;SDS011;21057;51.024;7.540;2023-10-13T07:53:37;31.63;;;29.15;;
15454;SDS011;21057;51.024;7.540;2023-10-13T07:56:06;30.80;;;28.45;;
15454;SDS011;21057;51.024;7.540;2023-10-13T07:58:35;31.42;;;28.90;;
15454;SDS011;21057;51.024;7.540;2023-10-13T08:01:12;31.63;;;28.85;;
15454;SDS011;21057;51.024;7.540;2023-10-13T08:03:43;31.58;;;28.92;;
15454;SDS011;21057;51.024;7.540;2023-10-13T08:06:10;31.88;;;29.10;;
15454;SDS011;21057;51.024;7.540;2023-10-13T08:08:53;31.77;;;28.92;;
15454;SDS011;21057;51.024;7.540;2023-10-13T08:11:32;33.95;;;30.85;;
15454;SDS011;21057;51.024;7.540;2023-10-13T08:14:03;34.65;;;31.90;;
15454;SDS011;21057;51.024;7.540;2023-10-13T08:16:37;33.80;;;31.10;;
15454;SDS011;21057;51.024;7.540;2023-10-13T08:19:13;33.67;;;31.23;;
15454;SDS011;21057;51.024;7.540;2023-10-13T08:21:41;35.30;;;32.65;;
15454;SDS011;21057;51.024;7.540;2023-10-13T08:24:15;33.08;;;30.38;;
15454;SDS011;21057;51.024;7.540;2023-10-13T08:26:50;35.05;;;31.67;;
15454;SDS011;21057;51.024;7.540;2023-10-13T08:29:35;34.63;;;31.45;;
15454;SDS011;21057;51.024;7.540;2023-10-13T08:32:20;34.28;;;31.48;;
15454;SDS011;21057;51.024;7.540;2023-10-13T08:35:01;35.95;;;32.42;;
15454;SDS011;21057;51.024;7.540;2023-10-13T08:37:47;33.72;;;30.15;;
15454;SDS011;21057;51.024;7.540;2023-10-13T08:40:26;34.25;;;31.58;;
15454;SDS011;21057;51.024;7.540;2023-10-13T08:43:10;31.90;;;29.42;;
15454;SDS011;21057;51.024;7.540;2023-10-13T08:45:39;32.88;;;30.00;;
15454;SDS011;21057;51.024;7.540;2023-10-13T08:48:18;32.00;;;28.63;;
15454;SDS011;21057;51.024;7.540;2023-10-13T08:50:51;31.10;;;28.63;;
15454;SDS011;21057;51.024;7.540;2023-10-13T08:53:21;30.73;;;28.23;;
15454;SDS011;21057;51.024;7.540;2023-10-13T08:55:53;31.55;;;28.58;;
15454;SDS011;21057;51.024;7.540;2023-10-13T08:58:29;30.17;;;27.38;;
15454;SDS011;21057;51.024;7.540;2023-10-13T09:01:31;32.85;;;29.75;;
15454;SDS011;21057;51.024;7.540;2023-10-13T09:04:00;30.40;;;27.92;;
15454;SDS011;21057;51.024;7.540;2023-10-13T09:06:41;33.85;;;31.02;;
15454;SDS011;21057;51.024;7.540;2023-10-13T09:09:12;29.88;;;27.02;;
15454;SDS011;21057;51.024;7.540;2023-10-13T09:11:52;30.17;;;27.58;;
15454;SDS011;21057;51.024;7.540;2023-10-13T09:14:33;30.15;;;27.45;;
15454;SDS011;21057;51.024;7.540;2023-10-13T09:17:03;30.13;;;27.52;;
15454;SDS011;21057;51.024;7.540;2023-10-13T09:19:47;31.27;;;28.70;;
15454;SDS011;21057;51.024;7.540;2023-10-13T09:22:20;30.05;;;27.45;;
15454;SDS011;21057;51.024;7.540;2023-10-13T09:24:55;29.75;;;27.00;;
15454;SDS011;21057;51.024;7.540;2023-10-13T09:27:24;30.55;;;27.80;;
15454;SDS011;21057;51.024;7.540;2023-10-13T09:29:56;30.48;;;27.38;;
15454;SDS011;21057;51.024;7.540;2023-10-13T09:32:24;28.67;;;25.20;;
15454;SDS011;21057;51.024;7.540;2023-10-13T09:34:52;27.67;;;25.52;;
15454;SDS011;21057;51.024;7.540;2023-10-13T09:37:24;28.02;;;25.65;;
15454;SDS011;21057;51.024;7.540;2023-10-13T09:39:52;27.75;;;25.42;;
15454;SDS011;21057;51.024;7.540;2023-10-13T09:42:29;27.42;;;24.92;;
15454;SDS011;21057;51.024;7.540;2023-10-13T09:44:59;27.38;;;25.05;;
15454;SDS011;21057;51.024;7.540;2023-10-13T09:47:30;28.98;;;23.48;;
15454;SDS011;21057;51.024;7.540;2023-10-13T09:50:02;25.83;;;23.35;;
15454;SDS011;21057;51.024;7.540;2023-10-13T09:52:30;26.65;;;23.90;;
15454;SDS011;21057;51.024;7.540;2023-10-13T09:55:04;26.73;;;24.15;;
15454;SDS011;21057;51.024;7.540;2023-10-13T09:57:39;25.58;;;23.58;;
15454;SDS011;21057;51.024;7.540;2023-10-13T10:00:14;25.33;;;23.30;;
15454;SDS011;21057;51.024;7.540;2023-10-13T10:03:02;25.00;;;23.00;;
15454;SDS011;21057;51.024;7.540;2023-10-13T10:05:40;24.90;;;22.63;;
15454;SDS011;21057;51.024;7.540;2023-10-13T10:08:06;26.13;;;23.80;;
15454;SDS011;21057;51.024;7.540;2023-10-13T10:10:43;26.10;;;24.05;;
15454;SDS011;21057;51.024;7.540;2023-10-13T10:13:20;24.83;;;21.95;;
15454;SDS011;21057;51.024;7.540;2023-10-13T10:15:59;24.67;;;22.40;;
15454;SDS011;21057;51.024;7.540;2023-10-13T10:18:40;24.60;;;22.77;;
15454;SDS011;21057;51.024;7.540;2023-10-13T10:21:07;24.80;;;22.30;;
15454;SDS011;21057;51.024;7.540;2023-10-13T10:23:35;24.80;;;22.38;;
15454;SDS011;21057;51.024;7.540;2023-10-13T10:26:10;23.90;;;21.85;;
15454;SDS011;21057;51.024;7.540;2023-10-13T10:28:39;23.98;;;21.98;;
15454;SDS011;21057;51.024;7.540;2023-10-13T10:31:07;24.25;;;22.05;;
15454;SDS011;21057;51.024;7.540;2023-10-13T10:33:37;23.88;;;21.65;;
15454;SDS011;21057;51.024;7.540;2023-10-13T10:36:06;23.73;;;21.50;;
15454;SDS011;21057;51.024;7.540;2023-10-13T10:38:50;23.63;;;21.23;;
15454;SDS011;21057;51.024;7.540;2023-10-13T10:41:25;23.77;;;21.58;;
15454;SDS011;21057;51.024;7.540;2023-10-13T10:44:07;24.02;;;22.13;;
15454;SDS011;21057;51.024;7.540;2023-10-13T10:46:40;24.25;;;22.00;;
15454;SDS011;21057;51.024;7.540;2023-10-13T10:49:16;24.98;;;22.45;;
15454;SDS011;21057;51.024;7.540;2023-10-13T10:51:54;23.75;;;21.95;;
15454;SDS011;21057;51.024;7.540;2023-10-13T10:54:26;24.10;;;22.20;;
15454;SDS011;21057;51.024;7.540;2023-10-13T10:56:57;24.55;;;22.48;;
15454;SDS011;21057;51.024;7.540;2023-10-13T10:59:35;24.10;;;22.23;;
15454;SDS011;21057;51.024;7.540;2023-10-13T11:02:03;23.65;;;21.85;;
15454;SDS011;21057;51.024;7.540;2023-10-13T11:04:31;25.42;;;23.15;;
15454;SDS011;21057;51.024;7.540;2023-10-13T11:07:01;23.42;;;21.42;;
15454;SDS011;21057;51.024;7.540;2023-10-13T11:09:32;24.65;;;21.98;;
15454;SDS011;21057;51.024;7.540;2023-10-13T11:12:09;25.25;;;22.75;;
15454;SDS011;21057;51.024;7.540;2023-10-13T11:14:41;24.63;;;22.35;;
15454;SDS011;21057;51.024;7.540;2023-10-13T11:17:18;24.38;;;22.25;;
15454;SDS011;21057;51.024;7.540;2023-10-13T11:19:49;25.27;;;22.35;;
15454;SDS011;21057;51.024;7.540;2023-10-13T11:22:18;23.92;;;22.05;;
15454;SDS011;21057;51.024;7.540;2023-10-13T11:24:57;24.92;;;22.77;;
15454;SDS011;21057;51.024;7.540;2023-10-13T11:27:29;24.10;;;21.92;;
15454;SDS011;21057;51.024;7.540;2023-10-13T11:30:21;25.05;;;22.65;;
15454;SDS011;21057;51.024;7.540;2023-10-13T11:33:01;23.77;;;21.92;;
15454;SDS011;21057;51.024;7.540;2023-10-13T11:35:30;25.00;;;22.75;;
15454;SDS011;21057;51.024;7.540;2023-10-13T11:38:13;23.27;;;21.50;;
15454;SDS011;21057;51.024;7.540;2023-10-13T11:40:40;24.30;;;22.00;;
15454;SDS011;21057;51.024;7.540;2023-10-13T11:43:30;24.40;;;22.13;;
15454;SDS011;21057;51.024;7.540;2023-10-13T11:46:00;23.92;;;21.73;;
15454;SDS011;21057;51.024;7.540;2023-10-13T11:48:38;24.63;;;22.30;;
15454;SDS011;21057;51.024;7.540;2023-10-13T11:51:07;23.27;;;21.48;;
15454;SDS011;21057;51.024;7.540;2023-10-13T11:53:43;23.00;;;20.95;;
15454;SDS011;21057;51.024;7.540;2023-10-13T11:56:13;23.55;;;21.73;;
15454;SDS011;21057;51.024;7.540;2023-10-13T11:58:42;23.58;;;21.48;;
15454;SDS011;21057;51.024;7.540;2023-10-13T12:01:11;22.52;;;20.80;;
15454;SDS011;21057;51.024;7.540;2023-10-13T12:03:46;24.52;;;22.58;;
15454;SDS011;21057;51.024;7.540;2023-10-13T12:06:33;23.30;;;21.38;;
15454;SDS011;21057;51.024;7.540;2023-10-13T12:09:13;24.08;;;22.05;;
15454;SDS011;21057;51.024;7.540;2023-10-13T12:12:05;23.52;;;21.52;;
15454;SDS011;21057;51.024;7.540;2023-10-13T12:14:34;23.58;;;21.67;;
15454;SDS011;21057;51.024;7.540;2023-10-13T12:17:02;24.25;;;22.02;;
15454;SDS011;21057;51.024;7.540;2023-10-13T12:19:35;23.33;;;21.42;;
15454;SDS011;21057;51.024;7.540;2023-10-13T12:22:04;23.00;;;21.10;;
15454;SDS011;21057;51.024;7.540;2023-10-13T12:24:35;23.48;;;21.38;;
15454;SDS011;21057;51.024;7.540;2023-10-13T12:27:07;22.67;;;20.73;;
15454;SDS011;21057;51.024;7.540;2023-10-13T12:29:45;22.33;;;20.77;;
15454;SDS011;21057;51.024;7.540;2023-10-13T12:32:12;23.48;;;21.38;;
15454;SDS011;21057;51.024;7.540;2023-10-13T12:34:40;23.65;;;21.58;;
15454;SDS011;21057;51.024;7.540;2023-10-13T12:37:41;23.73;;;21.20;;
15454;SDS011;21057;51.024;7.540;2023-10-13T12:40:18;23.48;;;21.17;;
15454;SDS011;21057;51.024;7.540;2023-10-13T12:43:03;23.25;;;21.00;;
15454;SDS011;21057;51.024;7.540;2023-10-13T12:45:48;23.85;;;21.95;;
15454;SDS011;21057;51.024;7.540;2023-10-13T12:48:34;22.88;;;21.02;;
15454;SDS011;21057;51.024;7.540;2023-10-13T12:51:19;22.60;;;20.60;;
15454;SDS011;21057;51.024;7.540;2023-10-13T12:54:05;22.40;;;20.77;;
15454;SDS011;21057;51.024;7.540;2023-10-13T12:56:40;22.48;;;20.63;;
15454;SDS011;21057;51.024;7.540;2023-10-13T12:59:07;22.08;;;20.13;;
15454;SDS011;21057;51.024;7.540;2023-10-13T13:01:38;21.92;;;20.00;;
15454;SDS011;21057;51.024;7.540;2023-10-13T13:04:08;23.02;;;21.13;;
15454;SDS011;21057;51.024;7.540;2023-10-13T13:06:43;22.70;;;20.95;;
15454;SDS011;21057;51.024;7.540;2023-10-13T13:09:10;21.92;;;20.02;;
15454;SDS011;21057;51.024;7.540;2023-10-13T13:11:37;23.00;;;21.02;;
15454;SDS011;21057;51.024;7.540;2023-10-13T13:14:06;20.73;;;19.23;;
15454;SDS011;21057;51.024;7.540;2023-10-13T13:16:34;22.27;;;20.30;;
15454;SDS011;21057;51.024;7.540;2023-10-13T13:19:04;22.48;;;20.30;;
15454;SDS011;21057;51.024;7.540;2023-10-13T13:21:36;22.30;;;20.35;;
15454;SDS011;21057;51.024;7.540;2023-10-13T13:24:03;21.80;;;19.77;;
15454;SDS011;21057;51.024;7.540;2023-10-13T13:26:36;21.85;;;20.15;;
15454;SDS011;21057;51.024;7.540;2023-10-13T13:29:07;21.63;;;19.92;;
15454;SDS011;21057;51.024;7.540;2023-10-13T13:31:36;21.77;;;20.08;;
15454;SDS011;21057;51.024;7.540;2023-10-13T13:34:06;21.98;;;20.13;;
15454;SDS011;21057;51.024;7.540;2023-10-13T13:36:35;22.42;;;20.50;;
15454;SDS011;21057;51.024;7.540;2023-10-13T13:39:03;21.92;;;19.95;;
15454;SDS011;21057;51.024;7.540;2023-10-13T13:41:31;21.98;;;20.00;;
15454;SDS011;21057;51.024;7.540;2023-10-13T13:43:58;21.95;;;20.05;;
15454;SDS011;21057;51.024;7.540;2023-10-13T13:46:39;22.33;;;20.63;;
15454;SDS011;21057;51.024;7.540;2023-10-13T13:49:08;22.15;;;20.30;;
15454;SDS011;21057;51.024;7.540;2023-10-13T13:51:43;22.40;;;20.38;;
15454;SDS011;21057;51.024;7.540;2023-10-13T13:54:17;22.60;;;20.80;;
15454;SDS011;21057;51.024;7.540;2023-10-13T13:56:44;22.17;;;20.35;;
15454;SDS011;21057;51.024;7.540;2023-10-13T13:59:11;23.55;;;21.20;;
15454;SDS011;21057;51.024;7.540;2023-10-13T14:01:42;22.70;;;20.75;;
15454;SDS011;21057;51.024;7.540;2023-10-13T14:04:09;22.25;;;20.52;;
15454;SDS011;21057;51.024;7.540;2023-10-13T14:06:36;22.70;;;20.65;;
15454;SDS011;21057;51.024;7.540;2023-10-13T14:09:04;21.80;;;19.98;;
15454;SDS011;21057;51.024;7.540;2023-10-13T14:11:39;23.30;;;20.25;;
15454;SDS011;21057;51.024;7.540;2023-10-13T14:14:24;21.50;;;19.70;;
15454;SDS011;21057;51.024;7.540;2023-10-13T14:17:00;22.30;;;20.50;;
15454;SDS011;21057;51.024;7.540;2023-10-13T14:19:33;22.15;;;20.20;;
15454;SDS011;21057;51.024;7.540;2023-10-13T14:22:05;22.30;;;20.17;;
15454;SDS011;21057;51.024;7.540;2023-10-13T14:24:33;21.63;;;19.83;;
15454;SDS011;21057;51.024;7.540;2023-10-13T14:27:08;22.25;;;20.38;;
15454;SDS011;21057;51.024;7.540;2023-10-13T14:29:37;22.63;;;20.48;;
15454;SDS011;21057;51.024;7.540;2023-10-13T14:32:08;22.98;;;20.98;;
15454;SDS011;21057;51.024;7.540;2023-10-13T14:34:38;22.83;;;20.50;;
15454;SDS011;21057;51.024;7.540;2023-10-13T14:37:05;21.70;;;19.65;;
15454;SDS011;21057;51.024;7.540;2023-10-13T14:39:33;23.35;;;21.05;;
15454;SDS011;21057;51.024;7.540;2023-10-13T14:42:02;22.85;;;20.80;;
15454;SDS011;21057;51.024;7.540;2023-10-13T14:44:30;22.65;;;20.65;;
15454;SDS011;21057;51.024;7.540;2023-10-13T14:46:58;23.02;;;21.15;;
15454;SDS011;21057;51.024;7.540;2023-10-13T14:49:26;22.40;;;20.67;;
15454;SDS011;21057;51.024;7.540;2023-10-13T14:51:54;22.73;;;20.30;;
15454;SDS011;21057;51.024;7.540;2023-10-13T14:54:21;22.50;;;20.40;;
15454;SDS011;21057;51.024;7.540;2023-10-13T14:56:57;21.45;;;19.85;;
15454;SDS011;21057;51.024;7.540;2023-10-13T14:59:25;21.42;;;19.77;;